createdAt,value
2018-07-17T00:02:58.510Z,18.19
2018-07-17T00:12:58.609Z,18.02
2018-07-17T00:22:58.443Z,17.81
2018-07-17T00:33:19.411Z,17.73
2018-07-17T00:43:02.795Z,17.43
2018-07-17T00:52:58.548Z,17.28
2018-07-17T01:02:58.526Z,17.23
2018-07-17T01:12:58.530Z,16.98
2018-07-17T01:22:58.548Z,17.04
2018-07-17T01:32:58.598Z,16.98
2018-07-17T01:42:58.777Z,16.95
2018-07-17T01:52:58.510Z,16.7
2018-07-17T02:02:58.635Z,16.68
2018-07-17T02:12:58.658Z,16.55
2018-07-17T02:22:58.494Z,16.41
2018-07-17T02:32:58.481Z,16.25
2018-07-17T02:42:58.551Z,16.33
2018-07-17T02:52:58.504Z,16.07
2018-07-17T03:02:58.540Z,16.12
2018-07-17T03:12:58.526Z,16.14
2018-07-17T03:22:58.437Z,15.88
2018-07-17T03:32:58.524Z,15.75
2018-07-17T03:42:58.499Z,15.72
2018-07-17T03:52:58.431Z,15.78
2018-07-17T04:02:58.628Z,15.82
2018-07-17T04:12:58.455Z,15.72
2018-07-17T04:22:58.547Z,16.16
2018-07-17T04:32:58.564Z,16.7
2018-07-17T04:42:58.451Z,16.83
2018-07-17T04:52:58.537Z,17.08
2018-07-17T05:02:58.527Z,17.23
2018-07-17T05:12:58.662Z,17.59
2018-07-17T05:22:58.759Z,18.18
2018-07-17T05:32:58.462Z,18.76
2018-07-17T05:42:58.551Z,19.43
2018-07-17T05:52:58.487Z,20.1
2018-07-17T06:02:58.558Z,20.89
2018-07-17T06:12:58.533Z,22.12
2018-07-17T06:22:58.646Z,24.77
2018-07-17T06:32:58.666Z,29.26
2018-07-17T06:42:58.549Z,32.4
2018-07-17T06:52:58.458Z,33.97
2018-07-17T07:02:58.622Z,35.37
2018-07-17T07:12:58.502Z,37.19
2018-07-17T07:22:58.612Z,38.46
2018-07-17T07:32:58.480Z,39.59
2018-07-17T07:42:58.551Z,39.52
2018-07-17T07:52:58.502Z,40.19
2018-07-17T08:02:59.211Z,40
2018-07-17T08:12:58.744Z,41.85
2018-07-17T08:22:58.481Z,42.04
2018-07-17T08:32:58.516Z,39.78
2018-07-17T08:42:58.539Z,40.68
2018-07-17T08:52:58.657Z,41.28
2018-07-17T09:02:58.516Z,38.79
2018-07-17T09:12:58.584Z,37.61
2018-07-17T09:22:58.526Z,35.1
2018-07-17T09:32:58.517Z,32.98
2018-07-17T09:42:58.543Z,31.67
2018-07-17T09:52:58.596Z,31.87
2018-07-17T10:02:58.504Z,31.91
2018-07-17T10:12:58.518Z,31.92
2018-07-17T10:22:58.539Z,31.54
2018-07-17T10:32:58.545Z,31.7
2018-07-17T10:42:58.536Z,31.5
2018-07-17T10:52:58.564Z,30.98
2018-07-17T11:02:58.551Z,30.94
2018-07-17T11:12:58.536Z,30.71
2018-07-17T11:22:58.571Z,30.64
2018-07-17T11:32:58.520Z,30.75
2018-07-17T11:42:58.594Z,30.96
2018-07-17T11:52:58.555Z,31.08
2018-07-17T12:02:58.586Z,30.78
2018-07-17T12:12:58.751Z,31.28
2018-07-17T12:22:58.548Z,30.53
2018-07-17T12:32:58.574Z,30.59
2018-07-17T12:42:58.572Z,30.46
2018-07-17T12:52:58.574Z,30.67
2018-07-17T13:02:58.553Z,30.87
2018-07-17T13:12:58.726Z,31.31
2018-07-17T13:22:58.587Z,31.45
2018-07-17T13:32:58.664Z,31.67
2018-07-17T13:42:58.630Z,31.46
2018-07-17T13:52:58.704Z,31.33
2018-07-17T14:02:58.550Z,31.04
2018-07-17T14:12:58.593Z,31.2
2018-07-17T14:22:58.724Z,30.89
2018-07-17T14:32:59.225Z,30.76
2018-07-17T14:43:00.369Z,30.98
2018-07-17T14:52:58.760Z,30.89
2018-07-17T15:02:58.898Z,30.29
2018-07-17T15:12:59.035Z,30.38
2018-07-17T15:22:58.801Z,30.15
2018-07-17T15:32:58.715Z,30.59
2018-07-17T15:42:58.740Z,30.11
2018-07-17T15:52:58.762Z,30.45
2018-07-17T16:02:58.784Z,30.69
2018-07-17T16:12:58.775Z,30.33
2018-07-17T16:22:58.736Z,29.87
2018-07-17T16:32:58.905Z,29.93
2018-07-17T16:42:58.890Z,29.68
2018-07-17T16:52:58.792Z,29.26
2018-07-17T17:02:58.671Z,29.07
2018-07-17T17:12:58.705Z,28.75
2018-07-17T17:22:58.911Z,28.31
2018-07-17T17:32:58.766Z,28.43
2018-07-17T17:42:58.946Z,28.1
2018-07-17T17:52:58.777Z,27.95
2018-07-17T18:02:59.010Z,27.94
2018-07-17T18:12:58.742Z,27.69
2018-07-17T18:22:58.810Z,27.38
2018-07-17T18:32:58.891Z,27.19
2018-07-17T18:42:58.837Z,26.94
2018-07-17T18:52:58.876Z,26.37
2018-07-17T19:02:58.750Z,25.97
2018-07-17T19:12:59.102Z,25.44
2018-07-17T19:23:01.055Z,24.97
2018-07-17T19:32:58.722Z,24.63
2018-07-17T19:42:58.724Z,24.27
2018-07-17T19:52:58.811Z,24
2018-07-17T20:02:58.774Z,23.46
2018-07-17T20:12:59.039Z,23.11
2018-07-17T20:22:58.830Z,22.65
2018-07-17T20:32:58.745Z,22.23
2018-07-17T20:42:58.795Z,21.76
2018-07-17T20:52:58.826Z,21.67
2018-07-17T21:02:58.673Z,21.2
2018-07-17T21:12:58.889Z,20.99
2018-07-17T21:22:58.953Z,20.66
2018-07-17T21:32:58.913Z,20.25
2018-07-17T21:42:58.979Z,19.98
2018-07-17T21:52:59.650Z,19.65
2018-07-17T22:02:59.199Z,19.51
2018-07-17T22:12:58.780Z,19.31
2018-07-17T22:22:59.366Z,18.97
2018-07-17T22:32:58.868Z,18.82
2018-07-17T22:42:58.733Z,18.62
2018-07-17T22:52:58.790Z,18.54
2018-07-17T23:02:58.766Z,18.42
2018-07-17T23:12:59.746Z,18.18
2018-07-17T23:22:58.764Z,18.03
2018-07-17T23:32:58.698Z,17.7
2018-07-17T23:42:58.829Z,17.44
2018-07-17T23:52:58.725Z,17.28
